Time;durP1;ratioP1;P1;durP2;ratioP2;P2;SDS_P1;SDS_P2;PMS_P1;PMS_P2;Temp;Humidity;BMP_temperature;BMP_pressure;BME280_temperature;BME280_humidity;BME280_pressure;Samples;Min_cycle;Max_cycle;Signal;HPM_P1;HPM_P2
2023/12/06 00:01:40;;;;;;;;;;;;;;;16.51;48.29;100861.06;4988560;28;1235;-50
2023/12/06 00:04:05;;;;;;;;;;;;;;;17.08;46.62;100841.91;4989798;28;1117;-52
2023/12/06 00:06:31;;;;;;;;;;;;;;;16.21;48.75;100845.31;4977162;28;1045;-50
2023/12/06 00:08:56;;;;;;;;;;;;;;;15.86;49.45;100847.66;4989805;28;1037;-50
2023/12/06 00:11:22;;;;;;;;;;;;;;;15.70;49.97;100846.72;4984949;28;1255;-52
2023/12/06 00:13:48;;;;;;;;;;;;;;;17.10;46.72;100848.78;4982830;28;1160;-51
2023/12/06 00:16:13;;;;;;;;;;;;;;;16.61;47.51;100857.50;4996167;28;1056;-48
2023/12/06 00:18:41;;;;;;;;;;;;;;;16.05;49.16;100858.16;4982951;28;1975;-48
2023/12/06 00:21:07;;;;;;;;;;;;;;;15.76;49.72;100860.47;4985355;28;1172;-50
2023/12/06 00:23:32;;;;;;;;;;;;;;;16.62;47.74;100853.69;4996104;28;1091;-51
2023/12/06 00:25:58;;;;;;;;;;;;;;;16.75;47.35;100855.88;4996279;28;1220;-50
2023/12/06 00:28:24;;;;;;;;;;;;;;;16.11;48.86;100857.09;4981645;28;1176;-52
2023/12/06 00:30:49;;;;;;;;;;;;;;;15.77;49.84;100851.13;4985912;28;963;-51
2023/12/06 00:33:15;;;;;;;;;;;;;;;16.10;49.14;100857.34;4995606;28;1040;-50
2023/12/06 00:35:40;;;;;;;;;;;;;;;17.30;46.08;100843.56;4995981;28;1134;-51
2023/12/06 00:38:06;;;;;;;;;;;;;;;16.32;48.25;100847.00;4995131;28;1983;-49
2023/12/06 00:40:31;;;;;;;;;;;;;;;15.91;49.33;100835.91;4996201;28;1048;-50
2023/12/06 00:42:57;;;;;;;;;;;;;;;17.08;46.64;100829.00;4994976;28;1095;-51
2023/12/06 00:45:22;;;;;;;;;;;;;;;16.77;47.09;100834.47;4983616;28;1176;-51
2023/12/06 00:47:48;;;;;;;;;;;;;;;16.18;48.72;100834.91;4997844;28;1044;-50
2023/12/06 00:50:14;;;;;;;;;;;;;;;15.87;49.64;100829.28;4987012;28;1057;-50
2023/12/06 00:52:40;;;;;;;;;;;;;;;16.29;48.54;100836.56;4998554;28;1036;-52
2023/12/06 00:55:05;;;;;;;;;;;;;;;17.00;46.82;100826.81;4986326;28;977;-53
2023/12/06 00:57:31;;;;;;;;;;;;;;;16.15;48.68;100824.47;4993671;28;1068;-52
2023/12/06 00:59:56;;;;;;;;;;;;;;;15.84;49.66;100825.16;4999270;28;1988;-52
2023/12/06 01:02:22;;;;;;;;;;;;;;;16.95;47.13;100832.31;4999273;28;1090;-52
2023/12/06 01:04:50;;;;;;;;;;;;;;;16.64;47.66;100836.94;4998904;28;1027;-50
2023/12/06 01:07:19;;;;;;;;;;;;;;;16.08;48.86;100835.69;4998363;28;896;-49
2023/12/06 01:09:44;;;;;;;;;;;;;;;16.48;48.18;100828.66;4991187;28;1027;-50
2023/12/06 01:12:10;;;;;;;;;;;;;;;17.14;46.53;100829.00;4992701;28;1128;-50
2023/12/06 01:14:36;;;;;;;;;;;;;;;16.31;48.49;100828.88;4983836;28;1177;-52
2023/12/06 01:17:01;;;;;;;;;;;;;;;15.89;49.34;100827.94;4997119;28;1103;-50
2023/12/06 01:19:27;;;;;;;;;;;;;;;16.63;47.72;100825.09;4986724;28;1981;-50
2023/12/06 01:21:53;;;;;;;;;;;;;;;17.05;46.63;100821.31;4993505;28;1069;-52
2023/12/06 01:24:19;;;;;;;;;;;;;;;16.21;48.54;100812.41;4998681;28;1107;-52
2023/12/06 01:26:44;;;;;;;;;;;;;;;15.93;49.46;100817.25;4998005;28;1064;-50
2023/12/06 01:29:10;;;;;;;;;;;;;;;15.70;49.97;100823.97;4997827;28;1071;-51
2023/12/06 01:31:36;;;;;;;;;;;;;;;16.89;47.08;100803.19;4993605;28;905;-48
2023/12/06 01:34:02;;;;;;;;;;;;;;;17.22;46.27;100799.06;4986851;28;1095;-51
2023/12/06 01:36:27;;;;;;;;;;;;;;;16.31;48.22;100803.38;4985158;28;1124;-51
2023/12/06 01:38:53;;;;;;;;;;;;;;;15.96;49.29;100794.75;4986059;28;1989;-51
2023/12/06 01:41:18;;;;;;;;;;;;;;;16.03;49.15;100789.88;4985560;28;1005;-50
2023/12/06 01:43:44;;;;;;;;;;;;;;;17.22;46.38;100787.22;4984425;28;1042;-52
2023/12/06 01:46:10;;;;;;;;;;;;;;;16.32;48.19;100792.13;4998017;28;1012;-46
2023/12/06 01:48:36;;;;;;;;;;;;;;;15.92;49.23;100785.41;4985516;28;1156;-52
2023/12/06 01:51:02;;;;;;;;;;;;;;;15.93;49.61;100781.59;4996838;28;1045;-51
2023/12/06 01:53:27;;;;;;;;;;;;;;;17.30;46.23;100770.16;4991252;28;1124;-51
2023/12/06 01:55:53;;;;;;;;;;;;;;;16.44;47.93;100764.44;4981848;28;962;-47
2023/12/06 01:58:18;;;;;;;;;;;;;;;15.98;49.09;100765.16;4997557;28;1980;-47
2023/12/06 02:00:44;;;;;;;;;;;;;;;16.51;48.01;100754.00;4997938;28;1044;-48
2023/12/06 02:03:09;;;;;;;;;;;;;;;16.90;46.83;100752.66;4993631;28;1160;-53
2023/12/06 02:05:35;;;;;;;;;;;;;;;16.13;48.88;100760.81;4978577;28;1064;-52
2023/12/06 02:08:01;;;;;;;;;;;;;;;15.84;49.51;100758.53;4987426;28;1031;-50
2023/12/06 02:10:26;;;;;;;;;;;;;;;15.80;49.88;100754.69;4985117;28;1184;-50
2023/12/06 02:12:52;;;;;;;;;;;;;;;17.23;46.29;100764.94;4991247;28;1047;-49
2023/12/06 02:15:18;;;;;;;;;;;;;;;16.57;47.68;100765.81;4997210;28;938;-51
2023/12/06 02:17:43;;;;;;;;;;;;;;;16.04;48.86;100766.81;4985235;28;922;-51
2023/12/06 02:20:09;;;;;;;;;;;;;;;16.39;48.44;100762.50;4989190;28;1899;-52
2023/12/06 02:22:35;;;;;;;;;;;;;;;17.16;46.32;100766.34;4985235;28;1127;-49
2023/12/06 02:25:00;;;;;;;;;;;;;;;16.30;48.30;100760.56;4996428;28;1073;-52
2023/12/06 02:27:26;;;;;;;;;;;;;;;15.88;49.34;100749.50;4995992;28;1047;-46
2023/12/06 02:29:51;;;;;;;;;;;;;;;15.74;49.70;100764.78;4984583;28;1242;-51
2023/12/06 02:32:17;;;;;;;;;;;;;;;17.15;46.68;100764.72;4979793;28;837;-52
2023/12/06 02:34:42;;;;;;;;;;;;;;;16.53;47.58;100751.00;4991372;28;1088;-51
2023/12/06 02:37:08;;;;;;;;;;;;;;;15.99;48.92;100753.09;4982762;28;1534;-49
2023/12/06 02:39:37;;;;;;;;;;;;;;;15.78;49.61;100743.13;4996835;28;1907;-51
2023/12/06 02:42:03;;;;;;;;;;;;;;;16.20;48.82;100744.91;4996638;28;1176;-50
2023/12/06 02:44:28;;;;;;;;;;;;;;;17.07;46.33;100742.19;4987115;28;915;-49
2023/12/06 02:46:54;;;;;;;;;;;;;;;16.19;48.64;100751.50;4997016;28;1103;-51
2023/12/06 02:49:19;;;;;;;;;;;;;;;15.84;49.35;100750.31;4983649;28;1136;-52
2023/12/06 02:51:45;;;;;;;;;;;;;;;16.41;48.13;100741.09;4996623;28;1081;-50
2023/12/06 02:54:11;;;;;;;;;;;;;;;17.14;46.30;100738.31;4996126;28;1168;-52
2023/12/06 02:56:36;;;;;;;;;;;;;;;16.23;48.31;100741.63;4983834;28;1088;-52
2023/12/06 02:59:02;;;;;;;;;;;;;;;15.85;49.44;100740.97;4997573;28;1978;-52
2023/12/06 03:01:27;;;;;;;;;;;;;;;16.22;48.57;100742.72;4984032;28;1116;-48
2023/12/06 03:03:53;;;;;;;;;;;;;;;17.19;45.94;100727.31;4990415;28;951;-48
2023/12/06 03:06:18;;;;;;;;;;;;;;;16.28;48.33;100735.31;4984006;28;1195;-50
2023/12/06 03:08:44;;;;;;;;;;;;;;;16.17;48.91;100729.84;4989207;28;950;-50
2023/12/06 03:11:09;;;;;;;;;;;;;;;17.37;45.65;100726.72;4977796;28;1103;-49
2023/12/06 03:13:35;;;;;;;;;;;;;;;16.41;47.90;100719.16;4989954;28;1187;-49
2023/12/06 03:16:00;;;;;;;;;;;;;;;16.03;49.15;100724.03;4996750;28;1092;-52
2023/12/06 03:18:26;;;;;;;;;;;;;;;17.28;45.97;100709.19;4984813;28;1902;-52
2023/12/06 03:20:52;;;;;;;;;;;;;;;16.61;47.65;100714.75;4983348;28;847;-51
2023/12/06 03:23:17;;;;;;;;;;;;;;;16.12;48.90;100709.78;4997038;28;1237;-51
2023/12/06 03:25:43;;;;;;;;;;;;;;;15.86;49.55;100716.03;4996869;28;1071;-53
2023/12/06 03:28:08;;;;;;;;;;;;;;;17.19;46.45;100703.41;4996851;28;1126;-52
2023/12/06 03:30:34;;;;;;;;;;;;;;;16.49;47.96;100697.75;4992022;28;1034;-53
2023/12/06 03:33:00;;;;;;;;;;;;;;;16.03;49.05;100704.84;4988588;28;993;-51
2023/12/06 03:35:25;;;;;;;;;;;;;;;16.55;48.08;100696.63;4996349;28;1236;-53
2023/12/06 03:37:51;;;;;;;;;;;;;;;16.93;46.87;100695.25;4985355;28;1176;-52
2023/12/06 03:40:16;;;;;;;;;;;;;;;16.21;48.49;100697.97;4976995;28;1915;-50
2023/12/06 03:42:42;;;;;;;;;;;;;;;15.85;49.35;100708.06;4987772;28;1084;-50
2023/12/06 03:45:07;;;;;;;;;;;;;;;16.28;48.71;100689.50;4980062;28;1179;-51
2023/12/06 03:47:33;;;;;;;;;;;;;;;16.97;46.63;100686.44;4980112;28;1072;-51
2023/12/06 03:49:59;;;;;;;;;;;;;;;16.16;48.66;100688.94;4996243;28;1195;-49
2023/12/06 03:52:24;;;;;;;;;;;;;;;15.87;49.47;100693.00;4972066;28;2440;-50
2023/12/06 03:54:50;;;;;;;;;;;;;;;16.13;49.12;100684.00;4990824;28;2263;-51
2023/12/06 03:57:15;;;;;;;;;;;;;;;17.44;45.53;100688.75;4969619;28;2321;-48
2023/12/06 03:59:41;;;;;;;;;;;;;;;16.54;47.87;100689.50;4982598;28;2061;-50
2023/12/06 04:02:07;;;;;;;;;;;;;;;16.10;48.79;100682.63;4980987;28;1943;-51
2023/12/06 04:04:32;;;;;;;;;;;;;;;16.38;48.44;100681.28;4979881;28;1925;-47
2023/12/06 04:06:58;;;;;;;;;;;;;;;17.43;45.77;100678.88;4980850;28;1819;-52
2023/12/06 04:09:23;;;;;;;;;;;;;;;16.48;47.80;100685.94;4983678;28;1341;-49
2023/12/06 04:11:49;;;;;;;;;;;;;;;16.06;48.87;100685.09;4984238;28;1140;-51
2023/12/06 04:14:14;;;;;;;;;;;;;;;15.78;49.68;100682.81;4981313;28;1369;-50
2023/12/06 04:16:40;;;;;;;;;;;;;;;16.54;48.04;100671.09;4987293;28;1068;-48
2023/12/06 04:19:06;;;;;;;;;;;;;;;17.12;46.43;100671.84;4984238;28;1902;-47
2023/12/06 04:21:31;;;;;;;;;;;;;;;16.34;48.39;100673.84;4988076;28;1111;-53
2023/12/06 04:23:57;;;;;;;;;;;;;;;15.97;49.19;100663.97;4981909;28;1411;-51
2023/12/06 04:26:22;;;;;;;;;;;;;;;15.72;49.61;100671.00;4984067;28;1057;-48
2023/12/06 04:28:48;;;;;;;;;;;;;;;16.45;47.99;100669.19;4979423;28;1270;-50
2023/12/06 04:31:13;;;;;;;;;;;;;;;17.22;45.90;100667.16;4985785;28;1080;-50
2023/12/06 04:33:40;;;;;;;;;;;;;;;16.26;48.44;100664.25;4999104;28;1059;-53
2023/12/06 04:36:06;;;;;;;;;;;;;;;15.95;49.15;100656.00;4991057;28;2553;-50
2023/12/06 04:38:32;;;;;;;;;;;;;;;16.73;47.46;100671.38;4983906;28;1902;-46
2023/12/06 04:40:57;;;;;;;;;;;;;;;16.89;46.84;100668.63;4999330;28;1070;-49
2023/12/06 04:43:23;;;;;;;;;;;;;;;16.21;48.51;100662.31;4996086;28;1314;-51
2023/12/06 04:45:48;;;;;;;;;;;;;;;15.86;49.41;100676.81;4990646;28;1096;-51
2023/12/06 04:48:14;;;;;;;;;;;;;;;17.04;46.63;100668.59;4990355;28;1528;-46
2023/12/06 04:50:40;;;;;;;;;;;;;;;16.64;47.22;100673.03;4975261;28;1333;-54
2023/12/06 04:53:05;;;;;;;;;;;;;;;16.06;48.65;100674.13;4991713;28;1084;-51
2023/12/06 04:55:31;;;;;;;;;;;;;;;15.92;49.44;100667.50;4982590;28;1048;-53
2023/12/06 04:57:56;;;;;;;;;;;;;;;17.22;46.08;100672.66;4978589;28;1053;-52
2023/12/06 05:00:22;;;;;;;;;;;;;;;16.37;48.08;100668.66;4997689;28;1906;-51
2023/12/06 05:02:48;;;;;;;;;;;;;;;15.94;49.00;100665.31;4998783;28;1162;-45
2023/12/06 05:05:13;;;;;;;;;;;;;;;15.72;49.67;100671.00;4980247;28;2426;-47
2023/12/06 05:07:39;;;;;;;;;;;;;;;17.04;46.62;100665.84;4990868;28;1017;-47
2023/12/06 05:10:05;;;;;;;;;;;;;;;16.95;46.70;100666.69;4998901;28;1148;-49
2023/12/06 05:12:30;;;;;;;;;;;;;;;16.26;48.50;100677.97;4998095;28;1004;-47
2023/12/06 05:14:56;;;;;;;;;;;;;;;16.16;48.92;100677.97;5000738;28;1012;-46
2023/12/06 05:17:21;;;;;;;;;;;;;;;17.52;45.34;100667.31;4989265;28;1128;-47
2023/12/06 05:19:47;;;;;;;;;;;;;;;16.58;47.58;100671.38;4994781;28;1914;-46
2023/12/06 05:22:12;;;;;;;;;;;;;;;16.19;48.70;100677.44;4988936;28;1024;-48
2023/12/06 05:24:38;;;;;;;;;;;;;;;15.86;49.41;100672.16;4991611;28;1144;-49
2023/12/06 05:27:04;;;;;;;;;;;;;;;17.18;46.21;100678.97;4988808;28;1053;-49
2023/12/06 05:29:31;;;;;;;;;;;;;;;16.28;48.66;100681.25;4995123;28;1087;-49
2023/12/06 05:31:57;;;;;;;;;;;;;;;17.09;46.47;100678.72;4984104;28;1120;-46
2023/12/06 05:34:23;;;;;;;;;;;;;;;16.34;47.82;100684.81;4991888;28;1155;-48
2023/12/06 05:36:48;;;;;;;;;;;;;;;16.05;47.53;100686.19;4985750;28;2551;-48
2023/12/06 05:39:14;;;;;;;;;;;;;;;15.86;47.42;100680.38;4988474;28;2037;-47
2023/12/06 05:41:40;;;;;;;;;;;;;;;15.76;46.59;100674.03;4982025;28;1120;-46
2023/12/06 05:44:05;;;;;;;;;;;;;;;15.62;46.37;100674.53;4983786;28;1180;-46
2023/12/06 05:46:31;;;;;;;;;;;;;;;15.59;45.86;100674.28;4992065;28;1041;-46
2023/12/06 05:48:57;;;;;;;;;;;;;;;16.52;47.37;100675.22;4988334;28;1097;-50
2023/12/06 05:51:23;;;;;;;;;;;;;;;15.98;48.01;100685.63;4994649;28;1044;-43
2023/12/06 05:53:48;;;;;;;;;;;;;;;15.64;47.66;100677.84;4988285;28;1095;-44
2023/12/06 05:56:14;;;;;;;;;;;;;;;16.66;47.65;100670.84;4995918;28;1126;-49
2023/12/06 05:58:40;;;;;;;;;;;;;;;15.91;48.26;100682.31;4996299;28;1914;-42
2023/12/06 06:01:05;;;;;;;;;;;;;;;15.75;47.39;100678.69;4994699;28;1068;-44
2023/12/06 06:03:31;;;;;;;;;;;;;;;15.56;46.98;100687.41;4987946;28;1038;-47
2023/12/06 06:05:57;;;;;;;;;;;;;;;15.98;47.82;100684.81;4981962;28;1126;-47
2023/12/06 06:08:22;;;;;;;;;;;;;;;15.99;48.56;100679.06;4983358;28;1120;-49
2023/12/06 06:10:48;;;;;;;;;;;;;;;15.69;48.06;100672.34;4994063;28;1057;-44
2023/12/06 06:13:13;;;;;;;;;;;;;;;15.54;47.31;100673.16;4998240;28;1135;-44
2023/12/06 06:15:39;;;;;;;;;;;;;;;16.43;47.92;100675.78;4994353;28;1170;-47
2023/12/06 06:18:05;;;;;;;;;;;;;;;15.82;47.97;100675.72;4978506;28;1895;-46
2023/12/06 06:20:34;;;;;;;;;;;;;;;15.63;47.30;100670.72;4991923;28;1092;-47
2023/12/06 06:22:59;;;;;;;;;;;;;;;15.47;46.75;100660.78;4997844;28;1122;-46
2023/12/06 06:25:25;;;;;;;;;;;;;;;16.42;47.76;100662.31;4981005;28;1140;-48
2023/12/06 06:27:51;;;;;;;;;;;;;;;15.84;48.25;100643.38;4988403;28;1156;-46
2023/12/06 06:30:17;;;;;;;;;;;;;;;15.63;47.32;100648.78;4984931;28;1180;-45
2023/12/06 06:32:42;;;;;;;;;;;;;;;15.63;47.71;100648.78;4987281;28;1175;-46
2023/12/06 06:35:08;;;;;;;;;;;;;;;16.32;47.70;100652.19;4994882;28;1168;-44
2023/12/06 06:37:34;;;;;;;;;;;;;;;15.72;48.05;100655.41;4988132;28;1103;-46
2023/12/06 06:39:59;;;;;;;;;;;;;;;16.51;47.70;100651.59;4990786;28;1906;-43
2023/12/06 06:42:25;;;;;;;;;;;;;;;16.02;48.43;100648.34;4987624;28;1187;-44
2023/12/06 06:44:51;;;;;;;;;;;;;;;15.77;48.33;100648.25;4984130;28;1080;-45
2023/12/06 06:47:17;;;;;;;;;;;;;;;16.79;47.58;100649.38;4987481;28;1137;-46
2023/12/06 06:49:44;;;;;;;;;;;;;;;16.06;47.80;100641.22;4984375;28;1160;-51
2023/12/06 06:52:10;;;;;;;;;;;;;;;17.10;47.28;100637.22;4997273;28;1008;-45
2023/12/06 06:54:36;;;;;;;;;;;;;;;16.63;48.22;100638.41;4997148;28;1041;-50
2023/12/06 06:57:01;;;;;;;;;;;;;;;16.18;47.99;100634.63;4989692;28;1083;-46
2023/12/06 06:59:28;;;;;;;;;;;;;;;15.90;47.47;100625.84;4981134;28;1965;-49
2023/12/06 07:01:54;;;;;;;;;;;;;;;16.96;47.69;100624.34;4987566;28;1076;-46
2023/12/06 07:04:19;;;;;;;;;;;;;;;16.22;48.18;100622.00;4993775;28;1096;-48
2023/12/06 07:06:45;;;;;;;;;;;;;;;17.14;47.40;100620.19;4996454;28;1095;-46
2023/12/06 07:09:11;;;;;;;;;;;;;;;17.07;47.83;100618.56;4991902;28;1063;-44
2023/12/06 07:11:36;;;;;;;;;;;;;;;16.52;47.85;100617.56;4997168;28;1119;-46
2023/12/06 07:14:03;;;;;;;;;;;;;;;16.24;48.43;100622.53;4997018;28;1095;-47
2023/12/06 07:16:28;;;;;;;;;;;;;;;16.42;48.34;100627.50;4996774;28;1061;-47
2023/12/06 07:18:54;;;;;;;;;;;;;;;16.13;47.82;100615.41;4993480;28;1977;-46
2023/12/06 07:21:19;;;;;;;;;;;;;;;16.01;47.05;100615.69;4979091;28;1040;-46
2023/12/06 07:23:45;;;;;;;;;;;;;;;16.73;47.75;100616.44;4990449;28;1104;-47
2023/12/06 07:26:10;;;;;;;;;;;;;;;16.25;48.27;100614.03;4986789;28;1053;-43
2023/12/06 07:28:36;;;;;;;;;;;;;;;15.94;47.47;100615.97;4983367;28;1063;-48
2023/12/06 07:31:02;;;;;;;;;;;;;;;15.77;46.82;100620.84;4987752;28;1168;-47
2023/12/06 07:33:27;;;;;;;;;;;;;;;15.66;46.87;100618.09;4987286;28;1177;-45
2023/12/06 07:35:56;;;;;;;;;;;;;;;16.79;47.47;100614.50;4996369;28;1080;-46
2023/12/06 07:38:21;;;;;;;;;;;;;;;16.06;47.96;100618.44;4995184;28;1977;-47
2023/12/06 07:40:47;;;;;;;;;;;;;;;17.28;47.18;100611.06;4987950;28;1031;-44
2023/12/06 07:43:13;;;;;;;;;;;;;;;16.89;47.99;100613.69;4979419;28;1405;-45
2023/12/06 07:45:39;;;;;;;;;;;;;;;16.25;48.06;100603.06;4996364;28;905;-45
2023/12/06 07:48:04;;;;;;;;;;;;;;;16.38;48.31;100615.41;4993899;28;1152;-45
2023/12/06 07:50:30;;;;;;;;;;;;;;;16.52;48.33;100606.59;4986104;28;1068;-43
2023/12/06 07:52:55;;;;;;;;;;;;;;;16.16;47.84;100606.63;4993797;28;1079;-47
2023/12/06 07:55:22;;;;;;;;;;;;;;;15.90;47.25;100603.91;4977616;28;1088;-45
2023/12/06 07:57:48;;;;;;;;;;;;;;;15.85;46.34;100601.13;4987485;28;1127;-48
2023/12/06 08:00:14;;;;;;;;;;;;;;;16.40;47.80;100604.16;4980840;28;1902;-45
2023/12/06 08:02:41;;;;;;;;;;;;;;;16.54;48.31;100607.97;4996067;28;1095;-44
2023/12/06 08:05:10;;;;;;;;;;;;;;;16.07;47.92;100618.19;4991091;28;1023;-44
2023/12/06 08:07:37;;;;;;;;;;;;;;;15.88;46.94;100609.66;4996480;28;1080;-47
2023/12/06 08:10:10;;;;;;;;;;;;;;;15.70;46.46;100612.91;4998542;28;875;-47
2023/12/06 08:12:36;;;;;;;;;;;;;;;16.19;47.92;100622.56;4987351;28;1223;-46
2023/12/06 08:15:03;;;;;;;;;;;;;;;16.64;48.15;100618.13;5000114;28;1088;-45
2023/12/06 08:17:29;;;;;;;;;;;;;;;16.01;48.27;100611.03;4996069;28;1091;-48
2023/12/06 08:19:55;;;;;;;;;;;;;;;15.92;47.36;100615.41;4990755;28;1902;-47
2023/12/06 08:22:20;;;;;;;;;;;;;;;16.60;48.19;100592.31;4990824;28;1059;-47
2023/12/06 08:24:46;;;;;;;;;;;;;;;16.41;48.80;100608.53;4999714;28;1081;-47
2023/12/06 08:27:11;;;;;;;;;;;;;;;16.17;48.43;100613.78;4986956;28;1199;-45
2023/12/06 08:29:38;;;;;;;;;;;;;;;17.27;48.02;100609.41;4989551;28;1152;-47
2023/12/06 08:32:03;;;;;;;;;;;;;;;16.40;48.63;100607.72;4984313;28;1171;-48
2023/12/06 08:34:29;;;;;;;;;;;;;;;16.15;47.84;100600.34;4986949;28;839;-48
2023/12/06 08:36:55;;;;;;;;;;;;;;;16.05;46.84;100612.13;4980192;28;1080;-47
2023/12/06 08:39:20;;;;;;;;;;;;;;;15.94;46.09;100598.69;4990740;28;1942;-45
2023/12/06 08:41:46;;;;;;;;;;;;;;;16.68;48.11;100594.50;4982216;28;1168;-46
2023/12/06 08:44:12;;;;;;;;;;;;;;;15.99;48.41;100588.56;4990591;28;1105;-46
2023/12/06 08:46:37;;;;;;;;;;;;;;;15.91;47.50;100586.34;4995509;28;1211;-46
2023/12/06 08:49:03;;;;;;;;;;;;;;;16.61;48.29;100582.97;4999324;28;1028;-48
2023/12/06 08:51:28;;;;;;;;;;;;;;;16.15;48.60;100583.06;4981998;28;1051;-49
2023/12/06 08:53:54;;;;;;;;;;;;;;;15.87;48.01;100572.34;4991050;28;1052;-45
2023/12/06 08:56:19;;;;;;;;;;;;;;;16.88;48.13;100573.56;4999454;28;1104;-47
2023/12/06 08:58:45;;;;;;;;;;;;;;;16.15;48.33;100578.38;4985750;28;1906;-47
2023/12/06 09:01:11;;;;;;;;;;;;;;;15.88;47.73;100584.16;4992852;28;1089;-48
2023/12/06 09:03:36;;;;;;;;;;;;;;;16.20;48.04;100589.38;5005570;28;1238;-46
2023/12/06 09:06:02;;;;;;;;;;;;;;;16.31;48.48;100587.41;4995330;28;1057;-46
2023/12/06 09:08:27;;;;;;;;;;;;;;;15.96;48.11;100586.34;4989886;28;1219;-49
2023/12/06 09:10:53;;;;;;;;;;;;;;;15.79;47.25;100585.75;4994648;28;1132;-47
2023/12/06 09:13:19;;;;;;;;;;;;;;;15.74;46.47;100584.66;4998789;28;1063;-46
2023/12/06 09:15:44;;;;;;;;;;;;;;;16.41;47.62;100570.94;4984568;28;1211;-49
2023/12/06 09:18:10;;;;;;;;;;;;;;;16.10;48.39;100572.91;4999041;28;1051;-47
2023/12/06 09:20:35;;;;;;;;;;;;;;;16.88;48.03;100568.91;4998479;28;1068;-47
2023/12/06 09:23:01;;;;;;;;;;;;;;;17.30;47.68;100563.25;4994807;28;861;-48
2023/12/06 09:25:27;;;;;;;;;;;;;;;16.46;48.39;100561.06;4998328;28;1130;-49
2023/12/06 09:27:53;;;;;;;;;;;;;;;16.07;47.78;100549.59;4998879;28;1067;-48
2023/12/06 09:30:18;;;;;;;;;;;;;;;15.94;47.17;100550.16;4985751;28;1088;-47
2023/12/06 09:32:45;;;;;;;;;;;;;;;15.78;46.28;100542.97;4998260;28;1070;-46
2023/12/06 09:35:10;;;;;;;;;;;;;;;16.58;47.97;100531.41;4993070;28;1092;-48
2023/12/06 09:37:36;;;;;;;;;;;;;;;16.04;47.98;100536.41;4979662;28;1048;-48
2023/12/06 09:40:02;;;;;;;;;;;;;;;16.26;48.29;100540.81;4979471;28;1931;-46
2023/12/06 09:42:28;;;;;;;;;;;;;;;16.52;48.54;100538.81;4988325;28;1243;-46
2023/12/06 09:44:55;;;;;;;;;;;;;;;16.08;48.27;100542.19;4985806;28;1091;-48
2023/12/06 09:47:22;;;;;;;;;;;;;;;15.84;47.63;100544.69;4993416;28;910;-47
2023/12/06 09:49:47;;;;;;;;;;;;;;;16.63;48.18;100539.59;4984524;28;1219;-45
2023/12/06 09:52:21;;;;;;;;;;;;;;;16.06;48.60;100531.50;4986482;28;1095;-47
2023/12/06 09:54:48;;;;;;;;;;;;;;;15.74;47.90;100538.06;4996492;28;1116;-45
2023/12/06 09:57:13;;;;;;;;;;;;;;;16.50;48.34;100537.44;4996807;28;1119;-46
2023/12/06 09:59:40;;;;;;;;;;;;;;;16.43;48.52;100527.56;4980883;28;1985;-47
2023/12/06 10:02:05;;;;;;;;;;;;;;;16.02;48.17;100524.91;4989750;28;1032;-43
2023/12/06 10:04:31;;;;;;;;;;;;;;;15.82;47.56;100519.44;4993299;28;1108;-49
2023/12/06 10:06:57;;;;;;;;;;;;;;;16.01;47.98;100511.47;4989429;28;1397;-49
2023/12/06 10:09:22;;;;;;;;;;;;;;;16.17;48.06;100507.63;4985168;28;1163;-47
2023/12/06 10:11:48;;;;;;;;;;;;;;;15.79;47.53;100498.88;4991766;28;1038;-45
2023/12/06 10:14:17;;;;;;;;;;;;;;;15.69;46.98;100496.13;4984924;28;1128;-49
2023/12/06 10:16:43;;;;;;;;;;;;;;;16.70;47.74;100500.88;4985694;28;1172;-48
2023/12/06 10:19:08;;;;;;;;;;;;;;;15.97;48.21;100505.72;4983871;28;2010;-46
2023/12/06 10:21:34;;;;;;;;;;;;;;;15.79;47.35;100498.88;4997904;28;1083;-47
2023/12/06 10:24:01;;;;;;;;;;;;;;;15.59;47.00;100496.94;4978654;28;1092;-45
2023/12/06 10:26:27;;;;;;;;;;;;;;;15.88;47.41;100496.41;4990769;28;1088;-45
2023/12/06 10:28:53;;;;;;;;;;;;;;;16.21;48.14;100488.66;4991946;28;1091;-49
2023/12/06 10:31:18;;;;;;;;;;;;;;;15.77;47.95;100486.50;4990223;28;1077;-49
2023/12/06 10:33:45;;;;;;;;;;;;;;;16.35;48.26;100480.69;4983943;28;1170;-45
2023/12/06 10:36:11;;;;;;;;;;;;;;;16.15;48.71;100479.63;4990150;28;899;-48
2023/12/06 10:38:45;;;;;;;;;;;;;;;15.78;47.93;100474.44;4983017;28;1914;-48
2023/12/06 10:41:11;;;;;;;;;;;;;;;16.76;47.98;100469.56;4997215;28;1021;-49
2023/12/06 10:43:37;;;;;;;;;;;;;;;16.13;48.42;100470.03;4996752;28;1406;-49
2023/12/06 10:46:02;;;;;;;;;;;;;;;16.43;48.35;100467.19;4995908;28;1111;-45
2023/12/06 10:48:28;;;;;;;;;;;;;;;16.79;47.91;100458.00;4989684;28;1171;-47
2023/12/06 10:50:54;;;;;;;;;;;;;;;16.16;48.22;100455.75;4990112;28;1408;-46
2023/12/06 10:53:20;;;;;;;;;;;;;;;15.90;47.72;100450.34;4991034;28;1119;-45
2023/12/06 10:55:46;;;;;;;;;;;;;;;16.21;48.01;100440.09;4976605;28;1210;-50
2023/12/06 10:58:12;;;;;;;;;;;;;;;16.24;48.80;100445.06;4991983;28;1202;-49
2023/12/06 11:00:38;;;;;;;;;;;;;;;15.94;47.95;100434.97;4983978;28;1898;-47
2023/12/06 11:03:03;;;;;;;;;;;;;;;17.21;47.53;100431.94;4990850;28;1183;-47
2023/12/06 11:05:29;;;;;;;;;;;;;;;16.32;48.35;100446.38;4977673;28;1065;-49
2023/12/06 11:07:55;;;;;;;;;;;;;;;16.06;47.32;100440.16;4996726;28;1005;-49
2023/12/06 11:10:27;;;;;;;;;;;;;;;15.88;46.70;100434.16;4986261;28;1028;-45
2023/12/06 11:12:52;;;;;;;;;;;;;;;15.77;46.93;100438.00;4997051;28;1118;-47
2023/12/06 11:15:37;;;;;;;;;;;;;;;16.63;48.00;100439.94;4983764;28;1168;-44
2023/12/06 11:18:02;;;;;;;;;;;;;;;16.03;47.97;100436.06;4995481;28;1126;-49
2023/12/06 11:20:28;;;;;;;;;;;;;;;16.24;48.37;100435.97;4984174;28;1914;-47
2023/12/06 11:22:53;;;;;;;;;;;;;;;16.73;48.33;100434.41;4990950;28;1067;-46
2023/12/06 11:25:19;;;;;;;;;;;;;;;16.12;48.07;100424.50;4991633;28;1092;-43
2023/12/06 11:27:45;;;;;;;;;;;;;;;16.03;47.11;100422.34;4988065;28;1171;-46
2023/12/06 11:30:17;;;;;;;;;;;;;;;15.77;46.54;100435.25;4992088;28;1053;-48
2023/12/06 11:32:43;;;;;;;;;;;;;;;16.18;47.92;100429.69;4986787;28;1195;-50
2023/12/06 11:35:09;;;;;;;;;;;;;;;16.56;48.26;100429.28;4989896;28;1264;-45
2023/12/06 11:37:34;;;;;;;;;;;;;;;16.00;47.96;100431.13;4995784;28;1136;-47
2023/12/06 11:40:18;;;;;;;;;;;;;;;15.82;47.27;100426.22;4982515;28;1919;-47
2023/12/06 11:42:57;;;;;;;;;;;;;;;16.14;47.94;100420.38;4996382;28;1112;-49
2023/12/06 11:45:26;;;;;;;;;;;;;;;16.54;48.28;100420.50;4989945;28;1180;-45
2023/12/06 11:47:53;;;;;;;;;;;;;;;15.96;47.97;100418.25;4980715;28;1088;-45
2023/12/06 11:50:23;;;;;;;;;;;;;;;15.84;47.73;100422.09;4989197;28;1039;-47
2023/12/06 11:52:49;;;;;;;;;;;;;;;16.83;47.86;100422.53;4978990;28;1116;-46
2023/12/06 11:55:18;;;;;;;;;;;;;;;16.08;48.12;100422.31;4997047;28;1084;-48
2023/12/06 11:58:02;;;;;;;;;;;;;;;15.87;47.31;100420.75;4994128;28;1099;-44
2023/12/06 12:00:28;;;;;;;;;;;;;;;16.64;47.93;100425.13;4993099;28;1895;-45
2023/12/06 12:02:54;;;;;;;;;;;;;;;16.08;48.10;100425.06;4983888;28;1136;-48
2023/12/06 12:05:20;;;;;;;;;;;;;;;15.81;47.46;100427.31;4996262;28;1028;-47
2023/12/06 12:07:46;;;;;;;;;;;;;;;15.71;46.70;100417.16;4996280;28;1083;-49
2023/12/06 12:10:11;;;;;;;;;;;;;;;16.71;48.01;100420.97;4985450;28;1127;-48
2023/12/06 12:12:37;;;;;;;;;;;;;;;16.26;48.26;100425.56;5008608;28;1158;-47
2023/12/06 12:15:04;;;;;;;;;;;;;;;15.91;47.57;100416.34;4996616;28;1056;-47
2023/12/06 12:17:30;;;;;;;;;;;;;;;16.88;47.62;100412.38;4996117;28;1029;-46
2023/12/06 12:19:55;;;;;;;;;;;;;;;16.15;48.16;100418.47;4996709;28;1974;-45
2023/12/06 12:22:21;;;;;;;;;;;;;;;15.88;47.37;100414.16;4982162;28;1103;-48
2023/12/06 12:24:46;;;;;;;;;;;;;;;15.75;46.85;100404.53;4989775;28;907;-46
2023/12/06 12:27:12;;;;;;;;;;;;;;;15.66;45.85;100400.72;4996313;28;1121;-49
2023/12/06 12:29:37;;;;;;;;;;;;;;;16.55;47.65;100411.16;4986261;28;1083;-47
2023/12/06 12:32:03;;;;;;;;;;;;;;;15.98;47.67;100414.13;4990234;28;1120;-44
2023/12/06 12:34:29;;;;;;;;;;;;;;;16.49;48.09;100424.09;4987715;28;1128;-50
2023/12/06 12:36:54;;;;;;;;;;;;;;;16.45;48.23;100417.50;4994207;28;905;-46
2023/12/06 12:39:20;;;;;;;;;;;;;;;16.04;47.77;100406.72;4984797;28;1907;-44
2023/12/06 12:41:46;;;;;;;;;;;;;;;15.91;47.88;100416.34;4978095;28;1080;-50